sensor_id;sensor_type;location;lat;lon;timestamp;temperature;humidity
19892;DHT22;10108;50.142;8.724;2023-04-21T00:00:52;8.00;99.90
19892;DHT22;10108;50.142;8.724;2023-04-21T00:03:19;8.00;99.90
19892;DHT22;10108;50.142;8.724;2023-04-21T00:05:47;8.00;99.90
19892;DHT22;10108;50.142;8.724;2023-04-21T00:08:14;8.00;99.90
19892;DHT22;10108;50.142;8.724;2023-04-21T00:10:40;8.00;99.90
19892;DHT22;10108;50.142;8.724;2023-04-21T00:13:07;8.10;99.90
19892;DHT22;10108;50.142;8.724;2023-04-21T00:15:33;8.10;99.90
19892;DHT22;10108;50.142;8.724;2023-04-21T00:17:59;8.10;99.90
19892;DHT22;10108;50.142;8.724;2023-04-21T00:20:27;8.10;99.90
19892;DHT22;10108;50.142;8.724;2023-04-21T00:22:54;8.10;99.90
19892;DHT22;10108;50.142;8.724;2023-04-21T00:25:21;8.10;99.90
19892;DHT22;10108;50.142;8.724;2023-04-21T00:27:47;8.20;99.90
19892;DHT22;10108;50.142;8.724;2023-04-21T00:30:13;8.20;99.90
19892;DHT22;10108;50.142;8.724;2023-04-21T00:32:39;8.20;99.90
19892;DHT22;10108;50.142;8.724;2023-04-21T00:35:06;8.20;99.90
19892;DHT22;10108;50.142;8.724;2023-04-21T00:37:32;8.20;99.90
19892;DHT22;10108;50.142;8.724;2023-04-21T00:39:59;8.30;99.90
19892;DHT22;10108;50.142;8.724;2023-04-21T00:42:25;8.30;99.90
19892;DHT22;10108;50.142;8.724;2023-04-21T00:44:52;8.40;99.90
19892;DHT22;10108;50.142;8.724;2023-04-21T00:47:18;8.40;99.90
19892;DHT22;10108;50.142;8.724;2023-04-21T00:49:45;8.40;99.90
19892;DHT22;10108;50.142;8.724;2023-04-21T00:52:13;8.40;99.90
19892;DHT22;10108;50.142;8.724;2023-04-21T00:54:41;8.50;99.90
19892;DHT22;10108;50.142;8.724;2023-04-21T00:57:08;8.40;99.90
19892;DHT22;10108;50.142;8.724;2023-04-21T00:59:35;8.50;99.90
19892;DHT22;10108;50.142;8.724;2023-04-21T01:02:02;8.40;99.90
19892;DHT22;10108;50.142;8.724;2023-04-21T01:04:28;8.30;99.90
19892;DHT22;10108;50.142;8.724;2023-04-21T01:07:00;8.30;99.90
19892;DHT22;10108;50.142;8.724;2023-04-21T01:09:27;8.30;99.90
19892;DHT22;10108;50.142;8.724;2023-04-21T01:14:29;8.20;99.90
19892;DHT22;10108;50.142;8.724;2023-04-21T01:16:56;8.20;99.90
19892;DHT22;10108;50.142;8.724;2023-04-21T01:19:23;8.10;99.90
19892;DHT22;10108;50.142;8.724;2023-04-21T01:21:51;8.10;99.90
19892;DHT22;10108;50.142;8.724;2023-04-21T01:24:18;8.20;99.90
19892;DHT22;10108;50.142;8.724;2023-04-21T01:26:45;8.20;99.90
19892;DHT22;10108;50.142;8.724;2023-04-21T01:29:15;8.10;99.90
19892;DHT22;10108;50.142;8.724;2023-04-21T01:31:42;8.10;99.90
19892;DHT22;10108;50.142;8.724;2023-04-21T01:34:09;8.20;99.90
19892;DHT22;10108;50.142;8.724;2023-04-21T01:36:36;8.20;99.90
19892;DHT22;10108;50.142;8.724;2023-04-21T01:39:02;8.30;99.90
19892;DHT22;10108;50.142;8.724;2023-04-21T01:41:29;8.30;99.90
19892;DHT22;10108;50.142;8.724;2023-04-21T01:43:55;8.30;99.90
19892;DHT22;10108;50.142;8.724;2023-04-21T01:46:23;8.30;99.90
19892;DHT22;10108;50.142;8.724;2023-04-21T01:48:49;8.30;99.90
19892;DHT22;10108;50.142;8.724;2023-04-21T01:51:16;8.30;99.90
19892;DHT22;10108;50.142;8.724;2023-04-21T01:53:43;8.30;99.90
19892;DHT22;10108;50.142;8.724;2023-04-21T01:56:13;8.30;99.90
19892;DHT22;10108;50.142;8.724;2023-04-21T01:58:39;8.30;99.90
19892;DHT22;10108;50.142;8.724;2023-04-21T02:01:05;8.20;99.90
19892;DHT22;10108;50.142;8.724;2023-04-21T02:03:31;8.20;99.90
19892;DHT22;10108;50.142;8.724;2023-04-21T02:05:57;8.20;99.90
19892;DHT22;10108;50.142;8.724;2023-04-21T02:08:23;8.20;99.90
19892;DHT22;10108;50.142;8.724;2023-04-21T02:10:50;8.10;99.90
19892;DHT22;10108;50.142;8.724;2023-04-21T02:13:16;8.10;99.90
19892;DHT22;10108;50.142;8.724;2023-04-21T02:15:42;8.10;99.90
19892;DHT22;10108;50.142;8.724;2023-04-21T02:18:08;8.10;99.90
19892;DHT22;10108;50.142;8.724;2023-04-21T02:20:36;8.10;99.90
19892;DHT22;10108;50.142;8.724;2023-04-21T02:23:02;8.20;99.90
19892;DHT22;10108;50.142;8.724;2023-04-21T02:25:28;8.20;99.90
19892;DHT22;10108;50.142;8.724;2023-04-21T02:27:55;8.20;99.90
19892;DHT22;10108;50.142;8.724;2023-04-21T02:30:21;8.20;99.90
19892;DHT22;10108;50.142;8.724;2023-04-21T02:32:47;8.20;99.90
19892;DHT22;10108;50.142;8.724;2023-04-21T02:35:14;8.20;99.90
19892;DHT22;10108;50.142;8.724;2023-04-21T02:37:40;8.20;99.90
19892;DHT22;10108;50.142;8.724;2023-04-21T02:40:07;8.20;99.90
19892;DHT22;10108;50.142;8.724;2023-04-21T02:42:33;8.20;99.90
19892;DHT22;10108;50.142;8.724;2023-04-21T02:44:59;8.20;99.90
19892;DHT22;10108;50.142;8.724;2023-04-21T02:47:26;8.20;99.90
19892;DHT22;10108;50.142;8.724;2023-04-21T02:49:53;8.20;99.90
19892;DHT22;10108;50.142;8.724;2023-04-21T02:52:19;8.20;99.90
19892;DHT22;10108;50.142;8.724;2023-04-21T02:54:45;8.20;99.90
19892;DHT22;10108;50.142;8.724;2023-04-21T02:57:11;8.20;99.90
19892;DHT22;10108;50.142;8.724;2023-04-21T02:59:38;8.20;99.90
19892;DHT22;10108;50.142;8.724;2023-04-21T03:02:05;8.20;99.90
19892;DHT22;10108;50.142;8.724;2023-04-21T03:04:31;8.20;99.90
19892;DHT22;10108;50.142;8.724;2023-04-21T03:06:58;8.20;99.90
19892;DHT22;10108;50.142;8.724;2023-04-21T03:09:25;8.20;99.90
19892;DHT22;10108;50.142;8.724;2023-04-21T03:11:52;8.20;99.90
19892;DHT22;10108;50.142;8.724;2023-04-21T03:14:18;8.20;99.90
19892;DHT22;10108;50.142;8.724;2023-04-21T03:16:44;8.10;99.90
19892;DHT22;10108;50.142;8.724;2023-04-21T03:19:12;8.10;99.90
19892;DHT22;10108;50.142;8.724;2023-04-21T03:21:38;8.10;99.90
19892;DHT22;10108;50.142;8.724;2023-04-21T03:24:05;8.10;99.90
19892;DHT22;10108;50.142;8.724;2023-04-21T03:26:32;8.20;99.90
19892;DHT22;10108;50.142;8.724;2023-04-21T03:28:58;8.20;99.90
19892;DHT22;10108;50.142;8.724;2023-04-21T03:31:24;8.20;99.90
19892;DHT22;10108;50.142;8.724;2023-04-21T03:33:50;8.10;99.90
19892;DHT22;10108;50.142;8.724;2023-04-21T03:36:17;8.20;99.90
19892;DHT22;10108;50.142;8.724;2023-04-21T03:38:43;8.20;99.90
19892;DHT22;10108;50.142;8.724;2023-04-21T03:41:09;8.20;99.90
19892;DHT22;10108;50.142;8.724;2023-04-21T03:43:35;8.20;99.90
19892;DHT22;10108;50.142;8.724;2023-04-21T03:46:02;8.20;99.90
19892;DHT22;10108;50.142;8.724;2023-04-21T03:48:28;8.20;99.90
19892;DHT22;10108;50.142;8.724;2023-04-21T03:50:54;8.20;99.90
19892;DHT22;10108;50.142;8.724;2023-04-21T03:53:20;8.20;99.90
19892;DHT22;10108;50.142;8.724;2023-04-21T03:55:49;8.20;99.90
19892;DHT22;10108;50.142;8.724;2023-04-21T03:58:15;8.20;99.90
19892;DHT22;10108;50.142;8.724;2023-04-21T04:00:42;8.20;99.90
19892;DHT22;10108;50.142;8.724;2023-04-21T04:03:08;8.20;99.90
19892;DHT22;10108;50.142;8.724;2023-04-21T04:05:35;8.20;99.90
19892;DHT22;10108;50.142;8.724;2023-04-21T04:08:01;8.20;99.90
19892;DHT22;10108;50.142;8.724;2023-04-21T04:10:27;8.20;99.90
19892;DHT22;10108;50.142;8.724;2023-04-21T04:12:53;8.20;99.90
19892;DHT22;10108;50.142;8.724;2023-04-21T04:15:20;8.20;99.90
19892;DHT22;10108;50.142;8.724;2023-04-21T04:17:46;8.20;99.90
19892;DHT22;10108;50.142;8.724;2023-04-21T04:20:12;8.20;99.90
19892;DHT22;10108;50.142;8.724;2023-04-21T04:22:38;8.20;99.90
19892;DHT22;10108;50.142;8.724;2023-04-21T04:25:04;8.20;99.90
19892;DHT22;10108;50.142;8.724;2023-04-21T04:27:31;8.20;99.90
19892;DHT22;10108;50.142;8.724;2023-04-21T04:29:57;8.20;99.90
19892;DHT22;10108;50.142;8.724;2023-04-21T04:32:24;8.20;99.90
19892;DHT22;10108;50.142;8.724;2023-04-21T04:34:53;8.30;99.90
19892;DHT22;10108;50.142;8.724;2023-04-21T04:37:21;8.30;99.90
19892;DHT22;10108;50.142;8.724;2023-04-21T04:39:47;8.30;99.90
19892;DHT22;10108;50.142;8.724;2023-04-21T04:42:15;8.30;99.90
19892;DHT22;10108;50.142;8.724;2023-04-21T04:44:41;8.30;99.90
19892;DHT22;10108;50.142;8.724;2023-04-21T04:47:07;8.20;99.90
19892;DHT22;10108;50.142;8.724;2023-04-21T04:49:33;8.30;99.90
19892;DHT22;10108;50.142;8.724;2023-04-21T04:51:59;8.30;99.90
19892;DHT22;10108;50.142;8.724;2023-04-21T04:54:26;8.30;99.90
19892;DHT22;10108;50.142;8.724;2023-04-21T04:56:54;8.30;99.90
19892;DHT22;10108;50.142;8.724;2023-04-21T04:59:20;8.30;99.90
19892;DHT22;10108;50.142;8.724;2023-04-21T05:01:47;8.30;99.90
19892;DHT22;10108;50.142;8.724;2023-04-21T05:04:13;8.30;99.90
19892;DHT22;10108;50.142;8.724;2023-04-21T05:06:41;8.30;99.90
19892;DHT22;10108;50.142;8.724;2023-04-21T05:09:08;8.30;99.90
19892;DHT22;10108;50.142;8.724;2023-04-21T05:11:35;8.30;99.90
19892;DHT22;10108;50.142;8.724;2023-04-21T05:14:01;8.40;99.90
19892;DHT22;10108;50.142;8.724;2023-04-21T05:16:27;8.40;99.90
19892;DHT22;10108;50.142;8.724;2023-04-21T05:18:53;8.40;99.90
19892;DHT22;10108;50.142;8.724;2023-04-21T05:21:26;8.50;99.90
19892;DHT22;10108;50.142;8.724;2023-04-21T05:23:54;8.40;99.90
19892;DHT22;10108;50.142;8.724;2023-04-21T05:26:21;8.40;99.90
19892;DHT22;10108;50.142;8.724;2023-04-21T05:28:48;8.50;99.90
19892;DHT22;10108;50.142;8.724;2023-04-21T05:31:14;8.50;99.90
19892;DHT22;10108;50.142;8.724;2023-04-21T05:33:40;8.60;99.90
19892;DHT22;10108;50.142;8.724;2023-04-21T05:36:09;8.60;99.90
19892;DHT22;10108;50.142;8.724;2023-04-21T05:38:36;8.70;99.90
19892;DHT22;10108;50.142;8.724;2023-04-21T05:41:03;8.70;99.90
19892;DHT22;10108;50.142;8.724;2023-04-21T05:43:30;8.70;99.90
19892;DHT22;10108;50.142;8.724;2023-04-21T05:46:00;8.70;99.90
19892;DHT22;10108;50.142;8.724;2023-04-21T05:48:26;8.70;99.90
19892;DHT22;10108;50.142;8.724;2023-04-21T05:50:54;8.70;99.90
19892;DHT22;10108;50.142;8.724;2023-04-21T05:53:21;8.80;99.90
19892;DHT22;10108;50.142;8.724;2023-04-21T05:55:48;8.80;99.90
19892;DHT22;10108;50.142;8.724;2023-04-21T05:58:15;8.80;99.90
19892;DHT22;10108;50.142;8.724;2023-04-21T06:00:41;8.80;99.90
19892;DHT22;10108;50.142;8.724;2023-04-21T06:03:07;8.90;99.90
19892;DHT22;10108;50.142;8.724;2023-04-21T06:05:33;8.90;99.90
19892;DHT22;10108;50.142;8.724;2023-04-21T06:07:59;8.90;99.90
19892;DHT22;10108;50.142;8.724;2023-04-21T06:10:26;9.00;99.90
19892;DHT22;10108;50.142;8.724;2023-04-21T06:12:52;9.00;99.90
19892;DHT22;10108;50.142;8.724;2023-04-21T06:15:18;9.00;99.90
19892;DHT22;10108;50.142;8.724;2023-04-21T06:17:44;9.00;99.90
19892;DHT22;10108;50.142;8.724;2023-04-21T06:20:11;9.10;99.90
19892;DHT22;10108;50.142;8.724;2023-04-21T06:22:37;9.10;99.90
19892;DHT22;10108;50.142;8.724;2023-04-21T06:25:03;9.20;99.90
19892;DHT22;10108;50.142;8.724;2023-04-21T06:27:30;9.20;99.90
19892;DHT22;10108;50.142;8.724;2023-04-21T06:29:56;9.20;99.90
19892;DHT22;10108;50.142;8.724;2023-04-21T06:32:23;9.20;99.90
19892;DHT22;10108;50.142;8.724;2023-04-21T06:34:49;9.20;99.90
19892;DHT22;10108;50.142;8.724;2023-04-21T06:37:15;9.30;99.90
19892;DHT22;10108;50.142;8.724;2023-04-21T06:39:41;9.30;99.90
19892;DHT22;10108;50.142;8.724;2023-04-21T06:42:07;9.40;99.90
19892;DHT22;10108;50.142;8.724;2023-04-21T06:44:41;9.40;99.90
19892;DHT22;10108;50.142;8.724;2023-04-21T06:47:07;9.50;99.90
19892;DHT22;10108;50.142;8.724;2023-04-21T06:49:33;9.50;99.90
19892;DHT22;10108;50.142;8.724;2023-04-21T06:52:02;9.60;99.90
19892;DHT22;10108;50.142;8.724;2023-04-21T06:54:29;9.60;99.90
19892;DHT22;10108;50.142;8.724;2023-04-21T06:56:55;9.60;99.90
19892;DHT22;10108;50.142;8.724;2023-04-21T06:59:22;9.60;99.90
19892;DHT22;10108;50.142;8.724;2023-04-21T07:01:48;9.60;99.90
19892;DHT22;10108;50.142;8.724;2023-04-21T07:04:17;9.70;99.90
19892;DHT22;10108;50.142;8.724;2023-04-21T07:06:44;9.70;99.90
19892;DHT22;10108;50.142;8.724;2023-04-21T07:09:10;9.80;99.90
19892;DHT22;10108;50.142;8.724;2023-04-21T07:11:36;9.80;99.90
19892;DHT22;10108;50.142;8.724;2023-04-21T07:14:03;9.80;99.90
19892;DHT22;10108;50.142;8.724;2023-04-21T07:16:29;9.90;99.90
19892;DHT22;10108;50.142;8.724;2023-04-21T07:18:55;10.00;99.90
19892;DHT22;10108;50.142;8.724;2023-04-21T07:21:21;10.00;99.90
19892;DHT22;10108;50.142;8.724;2023-04-21T07:23:47;10.00;99.90
19892;DHT22;10108;50.142;8.724;2023-04-21T07:26:14;10.10;99.90
19892;DHT22;10108;50.142;8.724;2023-04-21T07:28:40;10.10;99.90
19892;DHT22;10108;50.142;8.724;2023-04-21T07:31:06;10.10;99.90
19892;DHT22;10108;50.142;8.724;2023-04-21T07:33:32;10.10;99.90
19892;DHT22;10108;50.142;8.724;2023-04-21T07:35:59;10.10;99.90
19892;DHT22;10108;50.142;8.724;2023-04-21T07:38:25;10.20;99.90
19892;DHT22;10108;50.142;8.724;2023-04-21T07:40:51;10.20;99.90
19892;DHT22;10108;50.142;8.724;2023-04-21T07:43:18;10.20;99.90
19892;DHT22;10108;50.142;8.724;2023-04-21T07:45:44;10.30;99.90
19892;DHT22;10108;50.142;8.724;2023-04-21T07:48:11;10.30;99.90
19892;DHT22;10108;50.142;8.724;2023-04-21T07:50:37;10.30;99.90
19892;DHT22;10108;50.142;8.724;2023-04-21T07:53:03;10.30;99.90
19892;DHT22;10108;50.142;8.724;2023-04-21T07:55:30;10.40;99.90
19892;DHT22;10108;50.142;8.724;2023-04-21T07:57:56;10.40;99.90
19892;DHT22;10108;50.142;8.724;2023-04-21T08:00:22;10.40;99.90
19892;DHT22;10108;50.142;8.724;2023-04-21T08:02:48;10.50;99.90
19892;DHT22;10108;50.142;8.724;2023-04-21T08:05:14;10.50;99.90
19892;DHT22;10108;50.142;8.724;2023-04-21T08:07:40;10.50;99.90
19892;DHT22;10108;50.142;8.724;2023-04-21T08:10:07;10.60;99.90
19892;DHT22;10108;50.142;8.724;2023-04-21T08:12:33;10.60;99.90
19892;DHT22;10108;50.142;8.724;2023-04-21T08:15:00;10.70;99.90
19892;DHT22;10108;50.142;8.724;2023-04-21T08:17:30;10.70;99.90
19892;DHT22;10108;50.142;8.724;2023-04-21T08:19:56;10.80;99.90
19892;DHT22;10108;50.142;8.724;2023-04-21T08:22:23;10.80;99.90
19892;DHT22;10108;50.142;8.724;2023-04-21T08:24:49;10.80;99.90
19892;DHT22;10108;50.142;8.724;2023-04-21T08:27:15;10.80;99.90
19892;DHT22;10108;50.142;8.724;2023-04-21T08:29:41;10.90;99.90
19892;DHT22;10108;50.142;8.724;2023-04-21T08:32:07;10.90;99.90
19892;DHT22;10108;50.142;8.724;2023-04-21T08:34:33;10.90;99.90
19892;DHT22;10108;50.142;8.724;2023-04-21T08:37:00;11.00;99.90
19892;DHT22;10108;50.142;8.724;2023-04-21T08:39:26;11.00;99.90
19892;DHT22;10108;50.142;8.724;2023-04-21T08:41:52;11.00;99.90
19892;DHT22;10108;50.142;8.724;2023-04-21T08:44:20;11.10;99.90
19892;DHT22;10108;50.142;8.724;2023-04-21T08:46:48;11.10;99.90
19892;DHT22;10108;50.142;8.724;2023-04-21T08:49:18;11.10;99.90
19892;DHT22;10108;50.142;8.724;2023-04-21T08:51:45;11.10;99.90
19892;DHT22;10108;50.142;8.724;2023-04-21T08:54:12;11.20;99.90
19892;DHT22;10108;50.142;8.724;2023-04-21T08:56:38;11.20;99.90
19892;DHT22;10108;50.142;8.724;2023-04-21T08:59:05;11.20;99.90
19892;DHT22;10108;50.142;8.724;2023-04-21T09:01:31;11.20;99.90
19892;DHT22;10108;50.142;8.724;2023-04-21T09:04:17;11.20;99.90
19892;DHT22;10108;50.142;8.724;2023-04-21T09:06:43;11.30;99.90
19892;DHT22;10108;50.142;8.724;2023-04-21T09:09:10;11.30;99.90
19892;DHT22;10108;50.142;8.724;2023-04-21T09:11:37;11.30;99.90
19892;DHT22;10108;50.142;8.724;2023-04-21T09:14:03;11.30;99.90
19892;DHT22;10108;50.142;8.724;2023-04-21T09:16:31;11.30;99.90
19892;DHT22;10108;50.142;8.724;2023-04-21T09:19:00;11.20;99.90
19892;DHT22;10108;50.142;8.724;2023-04-21T09:21:27;11.20;99.90
19892;DHT22;10108;50.142;8.724;2023-04-21T09:23:53;11.30;99.90
19892;DHT22;10108;50.142;8.724;2023-04-21T09:26:23;11.30;99.90
19892;DHT22;10108;50.142;8.724;2023-04-21T09:28:51;11.40;99.90
19892;DHT22;10108;50.142;8.724;2023-04-21T09:31:19;11.40;99.90
19892;DHT22;10108;50.142;8.724;2023-04-21T09:33:47;11.40;99.90
19892;DHT22;10108;50.142;8.724;2023-04-21T09:36:28;11.50;99.90
19892;DHT22;10108;50.142;8.724;2023-04-21T09:39:02;11.50;99.90
19892;DHT22;10108;50.142;8.724;2023-04-21T09:41:30;11.50;99.90
19892;DHT22;10108;50.142;8.724;2023-04-21T09:43:56;11.60;99.90
19892;DHT22;10108;50.142;8.724;2023-04-21T09:46:28;11.60;99.90
19892;DHT22;10108;50.142;8.724;2023-04-21T09:48:55;11.70;99.90
19892;DHT22;10108;50.142;8.724;2023-04-21T09:51:23;11.70;99.90
19892;DHT22;10108;50.142;8.724;2023-04-21T09:53:52;11.80;99.90
19892;DHT22;10108;50.142;8.724;2023-04-21T09:56:24;11.80;99.90
19892;DHT22;10108;50.142;8.724;2023-04-21T09:58:57;11.90;99.90
19892;DHT22;10108;50.142;8.724;2023-04-21T10:01:26;11.90;99.90
19892;DHT22;10108;50.142;8.724;2023-04-21T10:03:55;11.90;99.90
19892;DHT22;10108;50.142;8.724;2023-04-21T10:06:22;11.90;99.90
19892;DHT22;10108;50.142;8.724;2023-04-21T10:08:49;12.00;99.90
19892;DHT22;10108;50.142;8.724;2023-04-21T10:11:17;12.00;99.90
19892;DHT22;10108;50.142;8.724;2023-04-21T10:13:44;12.10;99.90
19892;DHT22;10108;50.142;8.724;2023-04-21T10:16:11;12.10;99.90
19892;DHT22;10108;50.142;8.724;2023-04-21T10:18:42;12.20;99.90
19892;DHT22;10108;50.142;8.724;2023-04-21T10:21:10;12.20;99.90
19892;DHT22;10108;50.142;8.724;2023-04-21T10:23:38;12.20;99.90
19892;DHT22;10108;50.142;8.724;2023-04-21T10:26:25;12.30;99.90
19892;DHT22;10108;50.142;8.724;2023-04-21T10:28:55;12.30;99.90
19892;DHT22;10108;50.142;8.724;2023-04-21T10:31:39;12.40;99.90
19892;DHT22;10108;50.142;8.724;2023-04-21T10:34:14;12.40;99.90
19892;DHT22;10108;50.142;8.724;2023-04-21T10:39:23;12.50;99.90
19892;DHT22;10108;50.142;8.724;2023-04-21T10:41:50;12.50;99.90
19892;DHT22;10108;50.142;8.724;2023-04-21T10:44:16;12.50;99.90
19892;DHT22;10108;50.142;8.724;2023-04-21T10:46:52;12.60;99.90
19892;DHT22;10108;50.142;8.724;2023-04-21T10:49:26;12.60;99.90
19892;DHT22;10108;50.142;8.724;2023-04-21T10:54:40;12.60;99.90
19892;DHT22;10108;50.142;8.724;2023-04-21T10:57:09;12.60;99.90
19892;DHT22;10108;50.142;8.724;2023-04-21T10:59:37;12.60;99.90
19892;DHT22;10108;50.142;8.724;2023-04-21T11:02:06;12.50;99.90
19892;DHT22;10108;50.142;8.724;2023-04-21T11:04:33;12.50;99.90
19892;DHT22;10108;50.142;8.724;2023-04-21T11:07:06;12.40;99.90
19892;DHT22;10108;50.142;8.724;2023-04-21T11:09:36;12.40;99.90
19892;DHT22;10108;50.142;8.724;2023-04-21T11:12:05;12.40;99.90
19892;DHT22;10108;50.142;8.724;2023-04-21T11:14:36;12.30;99.90
19892;DHT22;10108;50.142;8.724;2023-04-21T11:17:04;12.40;99.90
19892;DHT22;10108;50.142;8.724;2023-04-21T11:19:33;12.30;99.90
19892;DHT22;10108;50.142;8.724;2023-04-21T11:21:59;12.40;99.90
19892;DHT22;10108;50.142;8.724;2023-04-21T11:24:26;12.40;99.90
19892;DHT22;10108;50.142;8.724;2023-04-21T11:26:52;12.50;99.90
19892;DHT22;10108;50.142;8.724;2023-04-21T11:29:18;12.70;99.90
19892;DHT22;10108;50.142;8.724;2023-04-21T11:31:45;12.70;99.90
19892;DHT22;10108;50.142;8.724;2023-04-21T11:34:13;12.80;99.90
19892;DHT22;10108;50.142;8.724;2023-04-21T11:36:44;12.90;99.90
19892;DHT22;10108;50.142;8.724;2023-04-21T11:39:13;12.90;99.90
19892;DHT22;10108;50.142;8.724;2023-04-21T11:41:41;13.00;99.90
19892;DHT22;10108;50.142;8.724;2023-04-21T11:44:11;13.10;99.90
19892;DHT22;10108;50.142;8.724;2023-04-21T11:46:44;13.20;99.90
19892;DHT22;10108;50.142;8.724;2023-04-21T11:49:13;13.20;99.90
19892;DHT22;10108;50.142;8.724;2023-04-21T11:51:41;13.30;99.90
19892;DHT22;10108;50.142;8.724;2023-04-21T11:54:12;13.20;99.90
19892;DHT22;10108;50.142;8.724;2023-04-21T11:56:40;13.20;99.90
19892;DHT22;10108;50.142;8.724;2023-04-21T11:59:14;13.20;99.90
19892;DHT22;10108;50.142;8.724;2023-04-21T12:01:51;13.10;99.90
19892;DHT22;10108;50.142;8.724;2023-04-21T12:04:22;13.20;99.90
19892;DHT22;10108;50.142;8.724;2023-04-21T12:07:01;13.20;99.90
19892;DHT22;10108;50.142;8.724;2023-04-21T12:09:28;13.30;99.90
19892;DHT22;10108;50.142;8.724;2023-04-21T12:11:56;13.30;99.90
19892;DHT22;10108;50.142;8.724;2023-04-21T12:14:24;13.30;99.90
19892;DHT22;10108;50.142;8.724;2023-04-21T12:16:55;13.30;99.90
19892;DHT22;10108;50.142;8.724;2023-04-21T12:19:23;13.30;99.90
19892;DHT22;10108;50.142;8.724;2023-04-21T12:21:54;13.30;99.90
19892;DHT22;10108;50.142;8.724;2023-04-21T12:24:24;13.40;99.90
19892;DHT22;10108;50.142;8.724;2023-04-21T12:26:50;13.40;99.90
19892;DHT22;10108;50.142;8.724;2023-04-21T12:29:16;13.50;99.90
19892;DHT22;10108;50.142;8.724;2023-04-21T12:31:42;13.60;99.90
19892;DHT22;10108;50.142;8.724;2023-04-21T12:34:08;13.60;99.90
19892;DHT22;10108;50.142;8.724;2023-04-21T12:36:34;13.60;99.90
19892;DHT22;10108;50.142;8.724;2023-04-21T12:39:01;13.70;99.90
19892;DHT22;10108;50.142;8.724;2023-04-21T12:41:27;13.70;99.90
19892;DHT22;10108;50.142;8.724;2023-04-21T12:43:53;13.80;99.90
19892;DHT22;10108;50.142;8.724;2023-04-21T12:46:19;13.80;99.90
19892;DHT22;10108;50.142;8.724;2023-04-21T12:48:45;13.80;99.90
19892;DHT22;10108;50.142;8.724;2023-04-21T12:51:13;13.80;99.90
19892;DHT22;10108;50.142;8.724;2023-04-21T12:53:39;13.80;99.90
19892;DHT22;10108;50.142;8.724;2023-04-21T12:56:05;13.80;99.90
19892;DHT22;10108;50.142;8.724;2023-04-21T12:58:32;13.80;99.90
19892;DHT22;10108;50.142;8.724;2023-04-21T13:00:58;13.80;99.90
19892;DHT22;10108;50.142;8.724;2023-04-21T13:03:24;13.80;99.90
19892;DHT22;10108;50.142;8.724;2023-04-21T13:05:51;13.90;99.90
19892;DHT22;10108;50.142;8.724;2023-04-21T13:08:17;13.90;99.90
19892;DHT22;10108;50.142;8.724;2023-04-21T13:10:43;13.80;99.90
19892;DHT22;10108;50.142;8.724;2023-04-21T13:13:10;13.80;99.90
19892;DHT22;10108;50.142;8.724;2023-04-21T13:15:36;13.70;99.90
19892;DHT22;10108;50.142;8.724;2023-04-21T13:18:03;13.80;99.90
19892;DHT22;10108;50.142;8.724;2023-04-21T13:20:30;13.90;99.90
19892;DHT22;10108;50.142;8.724;2023-04-21T13:22:56;13.90;99.90
19892;DHT22;10108;50.142;8.724;2023-04-21T13:25:22;13.80;99.90
19892;DHT22;10108;50.142;8.724;2023-04-21T13:27:49;13.70;99.90
19892;DHT22;10108;50.142;8.724;2023-04-21T13:30:15;13.70;99.90
19892;DHT22;10108;50.142;8.724;2023-04-21T13:32:41;13.60;99.90
19892;DHT22;10108;50.142;8.724;2023-04-21T13:35:08;13.60;99.90
19892;DHT22;10108;50.142;8.724;2023-04-21T13:37:39;13.70;99.90
19892;DHT22;10108;50.142;8.724;2023-04-21T13:40:07;13.70;99.90
19892;DHT22;10108;50.142;8.724;2023-04-21T13:42:35;13.60;99.90
19892;DHT22;10108;50.142;8.724;2023-04-21T13:45:01;13.60;99.90
19892;DHT22;10108;50.142;8.724;2023-04-21T13:47:32;13.60;99.90
19892;DHT22;10108;50.142;8.724;2023-04-21T13:49:58;13.50;99.90
19892;DHT22;10108;50.142;8.724;2023-04-21T13:52:25;13.60;99.90
19892;DHT22;10108;50.142;8.724;2023-04-21T13:54:52;13.50;99.90
19892;DHT22;10108;50.142;8.724;2023-04-21T13:57:19;13.50;99.90
19892;DHT22;10108;50.142;8.724;2023-04-21T13:59:46;13.60;99.90
19892;DHT22;10108;50.142;8.724;2023-04-21T14:02:12;13.60;99.90
19892;DHT22;10108;50.142;8.724;2023-04-21T14:04:38;13.70;99.90
19892;DHT22;10108;50.142;8.724;2023-04-21T14:07:05;13.80;99.90
19892;DHT22;10108;50.142;8.724;2023-04-21T14:09:33;13.80;99.90
19892;DHT22;10108;50.142;8.724;2023-04-21T14:11:59;13.80;99.90
19892;DHT22;10108;50.142;8.724;2023-04-21T14:14:26;13.80;99.90
19892;DHT22;10108;50.142;8.724;2023-04-21T14:16:52;13.90;99.90
19892;DHT22;10108;50.142;8.724;2023-04-21T14:19:19;13.90;99.90
19892;DHT22;10108;50.142;8.724;2023-04-21T14:21:45;14.00;99.90
19892;DHT22;10108;50.142;8.724;2023-04-21T14:24:11;14.00;99.90
19892;DHT22;10108;50.142;8.724;2023-04-21T14:26:37;14.00;99.90
19892;DHT22;10108;50.142;8.724;2023-04-21T14:29:03;13.90;99.90
19892;DHT22;10108;50.142;8.724;2023-04-21T14:31:29;13.80;99.90
19892;DHT22;10108;50.142;8.724;2023-04-21T14:33:55;13.80;99.90
19892;DHT22;10108;50.142;8.724;2023-04-21T14:36:23;13.90;99.90
19892;DHT22;10108;50.142;8.724;2023-04-21T14:38:49;13.90;99.90
19892;DHT22;10108;50.142;8.724;2023-04-21T14:41:15;13.90;99.90
19892;DHT22;10108;50.142;8.724;2023-04-21T14:43:41;13.90;99.90
19892;DHT22;10108;50.142;8.724;2023-04-21T14:46:07;13.90;99.90
19892;DHT22;10108;50.142;8.724;2023-04-21T14:48:34;13.90;99.90
19892;DHT22;10108;50.142;8.724;2023-04-21T14:51:00;13.90;99.90
19892;DHT22;10108;50.142;8.724;2023-04-21T14:53:26;13.90;99.90
19892;DHT22;10108;50.142;8.724;2023-04-21T14:55:52;13.90;99.90
19892;DHT22;10108;50.142;8.724;2023-04-21T14:58:18;13.80;99.90
19892;DHT22;10108;50.142;8.724;2023-04-21T15:00:44;13.80;99.90
19892;DHT22;10108;50.142;8.724;2023-04-21T15:03:11;13.80;99.90
19892;DHT22;10108;50.142;8.724;2023-04-21T15:05:37;13.90;99.90
19892;DHT22;10108;50.142;8.724;2023-04-21T15:08:03;13.90;99.90
19892;DHT22;10108;50.142;8.724;2023-04-21T15:10:30;13.80;99.90
19892;DHT22;10108;50.142;8.724;2023-04-21T15:12:57;13.80;99.90
19892;DHT22;10108;50.142;8.724;2023-04-21T15:15:23;13.80;99.90
19892;DHT22;10108;50.142;8.724;2023-04-21T15:17:49;13.80;99.90
19892;DHT22;10108;50.142;8.724;2023-04-21T15:20:15;13.70;99.90
19892;DHT22;10108;50.142;8.724;2023-04-21T15:22:41;13.70;99.90
19892;DHT22;10108;50.142;8.724;2023-04-21T15:25:08;13.80;99.90
19892;DHT22;10108;50.142;8.724;2023-04-21T15:27:34;13.90;99.90
19892;DHT22;10108;50.142;8.724;2023-04-21T15:30:02;14.00;99.90
19892;DHT22;10108;50.142;8.724;2023-04-21T15:32:29;14.10;99.90
19892;DHT22;10108;50.142;8.724;2023-04-21T15:34:55;14.10;99.90
19892;DHT22;10108;50.142;8.724;2023-04-21T15:37:21;14.20;99.90
19892;DHT22;10108;50.142;8.724;2023-04-21T15:39:47;14.20;99.90
19892;DHT22;10108;50.142;8.724;2023-04-21T15:42:13;14.20;99.90
19892;DHT22;10108;50.142;8.724;2023-04-21T15:44:40;14.10;99.90